Terminal Aerodrome Forecast
Issued by NWS Cleveland, OH

Home | Current Version | Previous Version | Graphics & Text | Print | Product List | Glossary On
Versions: 1 2 3 4 5 6 7 8 9 10 11 12 13 14 15 16 17 18 19 20 21 22 23 24 25 26
848
FTUS41 KCLE 250530 CCB
TAFCLE
TAF COR
KCLE 250530Z 2506/2612 23008KT P6SM VCTS BKN015CB OVC040
      TEMPO 2506/2509 6SM -SHRA BR SCT015 BKN040
     FM250900 23006KT P6SM SCT015 BKN120
      TEMPO 2509/2513 5SM BR BKN015
     FM251500 23011KT P6SM SCT025 BKN045
     FM252000 24012KT P6SM VCSH BKN045
      TEMPO 2522/2602 4SM TSRA BR OVC025CB
     FM260200 24008KT P6SM SCT025 BKN080
     FM260900 28005KT P6SM SCT250=

USA.gov is the U.S. government's official web portal to all federal, state and local government web resources and services.